Terminal Aerodrome Forecast
Issued by NWS

Home | Current Version | Previous Version | Text Only | Print | Product List | Glossary On
Versions: 1 2 3 4 5 6 7 8 9 10 11 12 13 14 15 16 17 18 19
000
FTUS42 KTBW 192328
TAFPGD
TAF
KPGD 192328Z 2000/2024 24006KT P6SM FEW250
     FM200800 18004KT 3SM BR FEW010 SCT250
      TEMPO 2009/2013 1SM BR BKN008
     FM201400 16004KT P6SM SCT025 BKN250
     FM201800 23009KT P6SM SCT035 BKN250=

USA.gov is the U.S. government's official web portal to all federal, state and local government web resources and services.